Time;durP1;ratioP1;P1;durP2;ratioP2;P2;SDS_P1;SDS_P2;PMS_P1;PMS_P2;Temp;Humidity;BMP_temperature;BMP_pressure;BME280_temperature;BME280_humidity;BME280_pressure;Samples;Min_cycle;Max_cycle;Signal;HPM_P1;HPM_P2
2020/12/26 00:01:19;;;;;;;14.77;12.33;;;3.40;86.90;;;;;;4988763;28;20189;-87
2020/12/26 00:03:46;;;;;;;13.30;12.10;;;3.40;86.60;;;;;;4988605;28;20177;-87
2020/12/26 00:06:19;;;;;;;15.00;13.43;;;3.40;86.20;;;;;;4989024;28;20179;-87
2020/12/26 00:08:45;;;;;;;14.43;13.03;;;3.30;86.60;;;;;;4988278;28;20223;-87
2020/12/26 00:11:13;;;;;;;15.87;14.27;;;3.20;87.00;;;;;;5003164;28;20179;-88
2020/12/26 00:13:39;;;;;;;15.23;13.73;;;3.20;86.70;;;;;;4988978;28;20190;-88
2020/12/26 00:16:07;;;;;;;15.10;13.60;;;3.20;86.10;;;;;;4988334;28;20211;-88
2020/12/26 00:18:33;;;;;;;15.47;13.07;;;3.10;84.70;;;;;;4976361;28;20207;-88
2020/12/26 00:21:06;;;;;;;14.53;13.13;;;3.10;86.50;;;;;;4970270;28;20187;-87
2020/12/26 00:23:31;;;;;;;15.40;13.70;;;3.10;85.80;;;;;;4969517;28;20188;-87
2020/12/26 00:25:57;;;;;;;14.47;13.07;;;3.00;85.20;;;;;;4988468;28;20190;-88
2020/12/26 00:28:23;;;;;;;16.13;13.37;;;3.10;86.20;;;;;;4988460;28;20298;-88
2020/12/26 00:30:48;;;;;;;15.23;13.63;;;3.10;86.90;;;;;;4988509;28;20252;-88
2020/12/26 00:33:14;;;;;;;14.67;12.87;;;3.10;86.10;;;;;;4989992;28;20187;-87
2020/12/26 00:35:40;;;;;;;15.23;13.63;;;3.10;87.10;;;;;;4990975;28;20190;-88
2020/12/26 00:38:05;;;;;;;14.63;13.13;;;3.10;85.30;;;;;;4991379;28;20276;-88
2020/12/26 00:40:31;;;;;;;14.70;13.17;;;3.00;86.00;;;;;;5005515;28;20642;-87
2020/12/26 00:43:00;;;;;;;12.43;11.23;;;3.10;88.20;;;;;;4989246;28;20193;-89
2020/12/26 00:45:26;;;;;;;14.57;11.80;;;3.20;88.80;;;;;;4989686;28;20198;-89
2020/12/26 00:47:52;;;;;;;13.07;11.77;;;3.20;86.40;;;;;;4989538;28;20202;-88
2020/12/26 00:50:17;;;;;;;13.73;12.43;;;3.20;87.80;;;;;;5005448;28;20187;-87
2020/12/26 00:52:43;;;;;;;14.20;11.60;;;3.20;87.40;;;;;;4990227;28;20191;-88
2020/12/26 00:55:09;;;;;;;12.83;11.50;;;3.20;87.50;;;;;;4989326;28;20182;-87
2020/12/26 00:57:35;;;;;;;11.97;10.77;;;3.20;88.50;;;;;;4971420;28;20211;-88
2020/12/26 01:00:01;;;;;;;11.60;10.40;;;3.20;88.90;;;;;;4968639;28;20218;-88
2020/12/26 01:02:27;;;;;;;10.90;9.90;;;3.30;89.20;;;;;;4967752;29;20207;-87
2020/12/26 01:04:53;;;;;;;12.63;10.97;;;3.30;88.80;;;;;;4967555;28;20196;-88
2020/12/26 01:07:18;;;;;;;10.60;9.33;;;3.30;88.90;;;;;;4967487;28;20192;-88
2020/12/26 01:09:44;;;;;;;10.93;9.83;;;3.20;85.70;;;;;;4968576;28;20199;-87
2020/12/26 01:12:10;;;;;;;11.40;10.20;;;3.20;88.00;;;;;;4984465;28;20218;-88
2020/12/26 01:14:35;;;;;;;11.83;10.63;;;3.30;88.40;;;;;;4968445;29;20198;-88
2020/12/26 01:17:01;;;;;;;13.87;9.67;;;3.30;89.00;;;;;;4994894;28;20198;-88
2020/12/26 01:19:27;;;;;;;11.07;10.07;;;3.40;88.30;;;;;;4986875;28;20559;-88
2020/12/26 01:21:54;;;;;;;12.20;10.97;;;3.40;88.40;;;;;;5002477;28;20238;-88
2020/12/26 01:24:20;;;;;;;11.97;9.73;;;3.50;87.90;;;;;;4986804;28;20193;-88
2020/12/26 01:26:49;;;;;;;10.90;9.77;;;3.50;86.90;;;;;;4987299;28;20194;-88
2020/12/26 01:29:16;;;;;;;10.40;9.30;;;3.40;86.00;;;;;;4986936;28;20250;-88
2020/12/26 01:31:42;;;;;;;10.73;9.63;;;3.40;87.10;;;;;;4987037;28;20171;-89
2020/12/26 01:34:08;;;;;;;10.37;9.37;;;3.40;85.80;;;;;;4987656;28;20199;-88
2020/12/26 01:36:35;;;;;;;12.13;10.60;;;3.30;87.50;;;;;;5002332;28;20242;-88
2020/12/26 01:39:06;;;;;;;10.30;9.40;;;3.30;87.80;;;;;;4986823;28;20214;-89
2020/12/26 01:41:32;;;;;;;10.53;9.63;;;3.20;84.60;;;;;;4986409;28;20211;-89
2020/12/26 01:44:00;;;;;;;10.80;9.70;;;3.10;86.00;;;;;;4987762;28;20195;-89
2020/12/26 01:46:31;;;;;;;10.27;9.20;;;3.10;87.70;;;;;;5001889;28;20189;-88
2020/12/26 01:48:58;;;;;;;10.53;9.00;;;3.10;88.50;;;;;;4986028;28;20211;-88
2020/12/26 01:51:27;;;;;;;11.77;10.57;;;3.10;88.60;;;;;;4985629;28;20195;-88
2020/12/26 01:53:53;;;;;;;9.93;9.00;;;3.00;87.80;;;;;;4986079;28;20221;-88
2020/12/26 01:56:19;;;;;;;10.23;9.23;;;3.10;89.50;;;;;;4978758;28;20214;-89
2020/12/26 01:58:45;;;;;;;11.23;9.30;;;3.10;88.00;;;;;;4986422;28;20698;-87
2020/12/26 02:01:11;;;;;;;10.97;9.60;;;3.20;90.10;;;;;;4986895;28;20179;-88
2020/12/26 02:03:39;;;;;;;9.83;8.90;;;3.20;89.40;;;;;;4985226;28;20206;-88
2020/12/26 02:06:06;;;;;;;11.43;10.07;;;3.20;89.40;;;;;;4984519;28;20194;-88
2020/12/26 02:08:32;;;;;;;10.20;9.10;;;3.20;88.20;;;;;;4986620;28;20211;-88
2020/12/26 02:10:58;;;;;;;10.87;9.47;;;3.20;87.80;;;;;;4986711;28;20182;-88
2020/12/26 02:13:24;;;;;;;11.27;9.60;;;3.20;87.70;;;;;;4986224;28;20183;-88
2020/12/26 02:16:06;;;;;;;9.73;8.77;;;3.20;86.90;;;;;;4985931;28;20206;-88
2020/12/26 02:18:33;;;;;;;11.07;9.27;;;3.30;89.10;;;;;;5001399;28;20203;-89
2020/12/26 02:21:00;;;;;;;12.87;9.90;;;3.30;88.80;;;;;;4984791;28;20301;-88
2020/12/26 02:23:27;;;;;;;9.70;8.63;;;3.30;88.10;;;;;;5000688;28;20191;-89
2020/12/26 02:25:56;;;;;;;10.40;9.10;;;3.20;87.20;;;;;;4984700;28;20211;-88
2020/12/26 02:28:23;;;;;;;10.87;9.77;;;3.20;89.00;;;;;;4986065;28;20207;-88
2020/12/26 02:30:50;;;;;;;11.53;10.33;;;3.10;87.70;;;;;;4985215;28;20187;-88
2020/12/26 02:33:16;;;;;;;13.80;11.00;;;2.90;88.10;;;;;;4981961;28;20202;-88
2020/12/26 02:35:47;;;;;;;11.17;9.70;;;2.90;89.20;;;;;;4980333;28;20263;-88
2020/12/26 02:38:14;;;;;;;12.33;10.97;;;2.90;88.80;;;;;;4965344;28;20199;-88
2020/12/26 02:40:40;;;;;;;12.00;10.07;;;2.80;86.30;;;;;;4971781;28;20803;-89
2020/12/26 02:43:17;;;;;;;13.00;10.00;;;2.60;87.70;;;;;;4969842;28;20246;-86
2020/12/26 02:45:43;;;;;;;15.10;11.83;;;2.60;88.50;;;;;;4986701;28;20175;-88
2020/12/26 02:48:09;;;;;;;13.77;11.27;;;2.40;87.60;;;;;;4986512;28;20202;-87
2020/12/26 02:50:34;;;;;;;16.43;11.23;;;2.10;89.60;;;;;;5001158;28;20202;-88
2020/12/26 02:53:00;;;;;;;14.13;11.33;;;2.20;91.10;;;;;;4984523;28;20207;-87
2020/12/26 02:55:26;;;;;;;12.20;10.70;;;2.30;90.90;;;;;;4986297;28;20234;-87
2020/12/26 02:57:51;;;;;;;13.13;11.07;;;2.30;90.20;;;;;;5000614;28;20294;-86
2020/12/26 03:00:17;;;;;;;10.87;9.77;;;2.40;91.00;;;;;;5001032;28;20211;-87
2020/12/26 03:02:43;;;;;;;11.67;10.47;;;2.50;89.90;;;;;;4986126;28;20179;-87
2020/12/26 03:05:09;;;;;;;12.77;10.47;;;2.50;89.50;;;;;;4985786;28;20238;-88
2020/12/26 03:07:34;;;;;;;13.37;10.63;;;2.60;90.10;;;;;;4985458;28;20233;-87
2020/12/26 03:10:00;;;;;;;11.97;10.73;;;2.60;90.50;;;;;;5000091;28;20202;-88
2020/12/26 03:12:27;;;;;;;13.50;11.10;;;2.50;88.20;;;;;;4983973;28;20195;-88
2020/12/26 03:14:52;;;;;;;15.40;11.37;;;2.50;89.10;;;;;;5000560;28;20253;-88
2020/12/26 03:17:18;;;;;;;13.43;10.47;;;2.50;90.70;;;;;;5000060;28;20187;-88
2020/12/26 03:19:44;;;;;;;13.67;11.40;;;2.70;91.10;;;;;;4985746;28;20202;-88
2020/12/26 03:22:09;;;;;;;11.40;10.20;;;2.80;87.90;;;;;;4985067;28;20669;-88
2020/12/26 03:24:35;;;;;;;13.13;10.73;;;2.70;89.00;;;;;;4985719;28;20183;-87
2020/12/26 03:27:00;;;;;;;11.40;10.20;;;2.70;89.30;;;;;;4985729;28;20187;-88
2020/12/26 03:29:26;;;;;;;13.90;10.87;;;2.80;90.40;;;;;;4989872;28;20203;-87
2020/12/26 03:31:52;;;;;;;11.80;9.83;;;2.90;88.00;;;;;;5004317;28;20214;-87
2020/12/26 03:34:17;;;;;;;11.63;10.27;;;2.90;88.00;;;;;;4989515;28;20183;-88
2020/12/26 03:36:43;;;;;;;13.40;10.53;;;2.90;88.80;;;;;;5004707;28;20217;-88
2020/12/26 03:39:09;;;;;;;13.97;10.83;;;2.90;88.70;;;;;;4988843;28;20223;-88
2020/12/26 03:41:34;;;;;;;13.57;10.63;;;2.80;88.90;;;;;;4989051;28;20186;-89
2020/12/26 03:44:00;;;;;;;11.20;9.63;;;2.80;90.00;;;;;;4989372;28;20183;-87
2020/12/26 03:46:26;;;;;;;14.97;10.37;;;2.90;90.80;;;;;;4988179;28;20402;-87
2020/12/26 03:48:51;;;;;;;12.70;10.93;;;3.00;90.60;;;;;;4973238;28;20239;-87
2020/12/26 03:51:17;;;;;;;14.60;10.90;;;3.00;90.10;;;;;;4969390;28;20235;-88
2020/12/26 03:53:43;;;;;;;13.33;10.60;;;2.80;86.80;;;;;;4970051;29;20188;-89
2020/12/26 03:56:16;;;;;;;12.67;10.93;;;2.50;87.10;;;;;;4979681;28;20187;-87
2020/12/26 03:58:41;;;;;;;12.73;9.80;;;2.60;89.80;;;;;;4988313;28;20215;-88
2020/12/26 04:01:07;;;;;;;12.83;9.60;;;2.60;87.80;;;;;;5003537;28;20183;-88
2020/12/26 04:03:33;;;;;;;10.57;9.40;;;2.50;90.60;;;;;;5004108;28;20183;-88
2020/12/26 04:05:59;;;;;;;13.40;9.80;;;2.60;91.00;;;;;;4989417;28;20511;-86
2020/12/26 04:08:25;;;;;;;13.30;11.13;;;2.70;89.20;;;;;;4987325;28;20258;-87
2020/12/26 04:10:50;;;;;;;14.63;9.80;;;2.60;87.20;;;;;;4989880;28;20183;-87
2020/12/26 04:13:16;;;;;;;11.40;9.70;;;2.60;89.40;;;;;;5004181;28;20251;-88
2020/12/26 04:15:42;;;;;;;12.47;10.60;;;2.40;88.40;;;;;;4989124;28;20191;-88
2020/12/26 04:18:07;;;;;;;12.33;10.00;;;2.20;88.90;;;;;;4988759;28;20570;-88
2020/12/26 04:20:33;;;;;;;12.07;10.47;;;2.10;89.10;;;;;;4989030;28;20663;-87
2020/12/26 04:22:59;;;;;;;13.20;9.97;;;2.20;91.90;;;;;;5004311;28;20187;-89
2020/12/26 04:25:24;;;;;;;13.03;9.70;;;2.10;89.40;;;;;;5004125;28;20183;-88
2020/12/26 04:27:50;;;;;;;11.20;9.13;;;2.20;89.70;;;;;;4969849;28;20207;-87
2020/12/26 04:30:16;;;;;;;13.23;10.17;;;2.20;91.10;;;;;;4984841;28;20194;-87
2020/12/26 04:32:41;;;;;;;11.07;9.77;;;2.30;91.10;;;;;;4968369;29;20621;-87
2020/12/26 04:35:07;;;;;;;12.57;10.20;;;2.20;91.00;;;;;;4969266;28;20191;-88
2020/12/26 04:37:33;;;;;;;11.80;10.60;;;2.20;89.30;;;;;;4969666;28;20291;-87
2020/12/26 04:39:59;;;;;;;9.97;9.00;;;2.20;90.70;;;;;;4968640;29;20212;-88
2020/12/26 04:42:25;;;;;;;11.03;9.60;;;2.30;91.70;;;;;;4968223;29;20211;-88
2020/12/26 04:44:52;;;;;;;11.17;9.70;;;2.40;91.40;;;;;;4968692;28;20195;-89
2020/12/26 04:47:28;;;;;;;10.73;8.97;;;2.50;91.30;;;;;;4969645;28;20188;-88
2020/12/26 04:49:58;;;;;;;11.73;9.63;;;2.60;90.90;;;;;;4970300;28;20171;-88
2020/12/26 04:52:27;;;;;;;10.13;9.07;;;2.50;90.10;;;;;;4985096;28;20275;-87
2020/12/26 04:54:54;;;;;;;14.00;10.03;;;2.60;90.40;;;;;;4984539;28;20196;-88
2020/12/26 04:57:21;;;;;;;13.33;10.63;;;2.40;87.70;;;;;;4968877;28;20179;-88
2020/12/26 04:59:46;;;;;;;13.53;10.40;;;2.20;88.80;;;;;;4968493;28;20200;-88
2020/12/26 05:02:14;;;;;;;11.73;10.53;;;2.00;90.00;;;;;;4969357;29;20294;-88
2020/12/26 05:04:43;;;;;;;11.53;10.33;;;2.00;90.20;;;;;;4983565;28;20195;-88
2020/12/26 05:07:11;;;;;;;11.10;10.00;;;2.10;89.30;;;;;;4967612;29;20183;-88
2020/12/26 05:09:36;;;;;;;12.07;9.90;;;2.00;91.80;;;;;;4969701;28;20222;-88
2020/12/26 05:12:02;;;;;;;11.87;10.37;;;1.90;89.40;;;;;;4970174;28;20490;-87
2020/12/26 05:14:30;;;;;;;12.87;10.93;;;1.50;91.30;;;;;;4970112;29;20183;-88
2020/12/26 05:16:56;;;;;;;11.77;9.77;;;1.30;93.90;;;;;;4968393;29;20202;-90
2020/12/26 05:19:22;;;;;;;13.53;10.30;;;1.40;95.80;;;;;;4968143;28;20610;-88
2020/12/26 05:21:53;;;;;;;12.63;10.47;;;1.50;95.40;;;;;;4970068;29;20184;-88
2020/12/26 05:24:19;;;;;;;14.50;11.60;;;1.40;93.10;;;;;;4971452;28;20358;-88
2020/12/26 05:26:46;;;;;;;13.13;11.00;;;1.30;94.10;;;;;;4989062;28;20206;-88
2020/12/26 05:29:14;;;;;;;12.87;10.17;;;1.30;94.80;;;;;;4988990;28;20740;-88
2020/12/26 05:31:58;;;;;;;14.27;9.73;;;1.40;95.60;;;;;;4987571;28;20190;-87
2020/12/26 05:34:39;;;;;;;13.33;9.93;;;1.60;95.10;;;;;;4984528;28;20262;-88
2020/12/26 05:37:05;;;;;;;12.33;8.77;;;1.80;94.80;;;;;;4983797;28;20231;-86
2020/12/26 05:39:35;;;;;;;16.90;10.13;;;1.80;92.60;;;;;;4968255;28;20223;-88
2020/12/26 05:42:01;;;;;;;12.27;9.90;;;1.50;92.90;;;;;;4969407;29;20183;-87
2020/12/26 05:44:32;;;;;;;11.47;9.60;;;1.30;95.20;;;;;;4971396;28;20183;-87
2020/12/26 05:47:06;;;;;;;11.93;9.67;;;1.30;95.90;;;;;;4988418;28;20184;-88
2020/12/26 05:49:39;;;;;;;15.60;10.53;;;1.30;96.10;;;;;;4988111;28;20270;-89
2020/12/26 05:52:13;;;;;;;15.90;10.40;;;1.20;96.20;;;;;;4986879;28;20191;-87
2020/12/26 05:54:49;;;;;;;12.43;9.03;;;1.10;97.60;;;;;;4983578;28;20216;-87
2020/12/26 05:57:16;;;;;;;10.37;8.77;;;1.30;97.20;;;;;;4983441;28;20167;-89
2020/12/26 05:59:51;;;;;;;13.83;9.70;;;1.40;95.60;;;;;;4967518;28;20243;-88
2020/12/26 06:02:17;;;;;;;16.07;10.57;;;1.40;95.20;;;;;;4968847;28;20163;-88
2020/12/26 06:04:52;;;;;;;11.53;9.27;;;1.40;95.90;;;;;;4973478;28;20187;-88
2020/12/26 06:07:22;;;;;;;14.17;9.30;;;1.40;95.20;;;;;;4987783;28;20198;-88
2020/12/26 06:09:52;;;;;;;11.87;9.60;;;1.40;95.20;;;;;;4987600;28;20658;-88
2020/12/26 06:12:19;;;;;;;12.47;9.70;;;1.40;96.00;;;;;;4994838;28;20194;-88
2020/12/26 06:14:48;;;;;;;12.43;9.30;;;1.40;96.10;;;;;;4988018;28;20183;-88
2020/12/26 06:17:22;;;;;;;14.57;9.83;;;1.20;96.80;;;;;;4987407;28;20179;-89
2020/12/26 06:20:07;;;;;;;14.77;9.27;;;1.30;96.20;;;;;;5002309;28;20301;-88
2020/12/26 06:22:49;;;;;;;12.93;9.37;;;1.20;97.40;;;;;;4968431;28;20191;-88
2020/12/26 06:25:19;;;;;;;11.87;9.43;;;1.30;97.80;;;;;;4968394;28;20247;-88
2020/12/26 06:27:51;;;;;;;12.43;8.67;;;1.40;96.60;;;;;;4967936;28;20222;-88
2020/12/26 06:30:20;;;;;;;13.50;8.93;;;1.60;95.10;;;;;;4967228;28;20240;-88
2020/12/26 06:32:48;;;;;;;11.57;8.40;;;1.60;95.00;;;;;;4966379;28;20203;-88
2020/12/26 06:35:14;;;;;;;11.37;8.50;;;1.70;94.30;;;;;;4968222;28;20187;-88
2020/12/26 06:37:40;;;;;;;12.73;9.13;;;1.70;94.40;;;;;;4966611;28;20207;-88
2020/12/26 06:40:29;;;;;;;11.10;8.17;;;1.70;94.10;;;;;;4961519;28;20278;-88
2020/12/26 06:42:56;;;;;;;9.60;8.20;;;1.60;94.00;;;;;;4957284;28;20199;-88
2020/12/26 06:45:35;;;;;;;11.20;8.67;;;1.50;94.00;;;;;;4962319;28;20278;-88
2020/12/26 06:48:02;;;;;;;10.63;8.50;;;1.50;95.40;;;;;;4961589;28;20191;-88
2020/12/26 06:50:32;;;;;;;11.67;8.03;;;1.60;96.50;;;;;;4977271;28;20207;-88
2020/12/26 06:52:58;;;;;;;11.40;8.40;;;1.80;94.10;;;;;;4981571;28;20191;-89
2020/12/26 06:55:44;;;;;;;10.87;8.33;;;1.80;93.30;;;;;;4984381;28;20191;-89
2020/12/26 06:58:30;;;;;;;12.10;8.57;;;1.80;93.30;;;;;;4987162;28;20285;-88
2020/12/26 07:00:56;;;;;;;9.33;8.33;;;1.80;93.60;;;;;;4979332;28;20290;-88
2020/12/26 07:03:24;;;;;;;11.03;7.80;;;1.70;93.80;;;;;;4976453;28;20222;-88
2020/12/26 07:05:52;;;;;;;9.73;8.17;;;1.80;93.90;;;;;;4968311;28;20251;-87
2020/12/26 07:08:24;;;;;;;11.63;8.20;;;1.80;94.10;;;;;;4970855;28;20210;-88
2020/12/26 07:10:51;;;;;;;11.30;8.13;;;1.70;93.60;;;;;;4967524;28;20246;-87
2020/12/26 07:13:42;;;;;;;9.67;7.80;;;1.70;94.70;;;;;;5000194;28;20328;-87
2020/12/26 07:16:39;;;;;;;11.90;8.50;;;1.80;95.40;;;;;;4985413;28;20174;-88
2020/12/26 07:19:23;;;;;;;15.37;9.40;;;1.70;93.00;;;;;;4981929;28;20535;-88
2020/12/26 07:21:53;;;;;;;14.77;10.20;;;1.40;94.70;;;;;;4982685;28;20189;-87
2020/12/26 07:24:31;;;;;;;15.87;10.20;;;1.10;97.30;;;;;;4998910;28;20159;-88
2020/12/26 07:27:15;;;;;;;16.87;10.67;;;1.10;97.80;;;;;;4983402;28;20165;-89
2020/12/26 07:30:05;;;;;;;13.30;8.87;;;1.30;96.90;;;;;;4983359;28;20198;-90
2020/12/26 07:32:39;;;;;;;14.80;9.70;;;1.30;96.50;;;;;;4978387;28;20179;-89
2020/12/26 07:35:25;;;;;;;14.37;9.60;;;1.20;97.10;;;;;;4983853;28;20201;-89
2020/12/26 07:37:51;;;;;;;12.03;8.87;;;1.20;97.30;;;;;;4981472;28;20276;-89
2020/12/26 07:40:28;;;;;;;14.00;9.67;;;1.20;97.10;;;;;;4984101;28;20206;-88
2020/12/26 07:42:56;;;;;;;15.00;10.37;;;1.20;96.80;;;;;;4985735;28;20163;-88
2020/12/26 07:45:27;;;;;;;12.63;9.80;;;1.30;96.60;;;;;;4986065;28;20179;-88
2020/12/26 07:47:55;;;;;;;13.07;9.50;;;1.30;97.20;;;;;;4976668;28;20219;-89
2020/12/26 07:50:26;;;;;;;11.90;9.53;;;1.30;96.80;;;;;;4966909;28;20190;-89
2020/12/26 07:52:54;;;;;;;15.63;9.53;;;1.40;95.80;;;;;;4988676;28;20194;-88
2020/12/26 07:55:21;;;;;;;13.40;9.43;;;1.40;96.20;;;;;;4978546;28;20652;-88
2020/12/26 07:57:47;;;;;;;12.43;9.30;;;1.40;96.00;;;;;;4982061;28;20681;-88
2020/12/26 08:00:26;;;;;;;13.20;9.50;;;1.40;97.00;;;;;;4982225;28;20218;-89
2020/12/26 08:02:53;;;;;;;13.67;9.63;;;1.40;96.30;;;;;;4982840;28;20190;-89
2020/12/26 08:05:20;;;;;;;11.87;9.37;;;1.30;96.60;;;;;;4977739;28;20188;-88
2020/12/26 08:07:46;;;;;;;14.33;10.27;;;1.30;97.20;;;;;;4976767;28;20203;-89
2020/12/26 08:10:14;;;;;;;12.47;10.93;;;1.40;96.00;;;;;;4974925;28;20233;-89
2020/12/26 08:12:50;;;;;;;17.57;10.97;;;1.40;97.60;;;;;;4981596;28;20187;-89
2020/12/26 08:15:20;;;;;;;14.23;9.87;;;1.50;96.60;;;;;;4976936;28;20671;-89
2020/12/26 08:17:47;;;;;;;14.47;11.37;;;1.50;95.90;;;;;;4981599;28;20262;-90
2020/12/26 08:20:14;;;;;;;14.77;10.33;;;1.50;95.60;;;;;;4984167;28;20229;-89
2020/12/26 08:22:43;;;;;;;14.00;9.60;;;1.70;94.50;;;;;;4986231;28;20199;-90
2020/12/26 08:25:11;;;;;;;14.70;9.13;;;1.70;94.70;;;;;;4964294;28;20272;-90
2020/12/26 08:27:38;;;;;;;12.60;9.97;;;1.80;93.80;;;;;;5005988;28;20217;-89
2020/12/26 08:30:30;;;;;;;14.23;9.50;;;1.80;94.10;;;;;;4989966;28;20186;-90
2020/12/26 08:33:04;;;;;;;12.40;9.40;;;1.70;94.50;;;;;;4985606;28;20191;-90
2020/12/26 08:35:31;;;;;;;11.37;8.83;;;1.80;94.70;;;;;;4972042;28;20311;-90
2020/12/26 08:38:05;;;;;;;13.17;9.17;;;1.80;93.80;;;;;;4972661;28;20202;-89
2020/12/26 08:40:37;;;;;;;16.67;10.27;;;1.90;93.60;;;;;;4984454;28;20199;-89
2020/12/26 08:43:03;;;;;;;15.63;9.50;;;1.90;94.10;;;;;;4986502;28;20681;-89
2020/12/26 08:45:30;;;;;;;13.93;9.47;;;1.70;94.40;;;;;;4970286;28;20215;-90
2020/12/26 08:47:59;;;;;;;15.17;9.80;;;1.80;93.80;;;;;;4999922;28;20210;-90
2020/12/26 08:50:26;;;;;;;10.57;8.00;;;2.00;93.00;;;;;;4976373;28;20268;-90
2020/12/26 08:53:05;;;;;;;11.63;9.20;;;2.10;93.80;;;;;;4966960;29;20188;-89
2020/12/26 08:55:31;;;;;;;14.77;9.13;;;2.10;92.10;;;;;;4966423;28;20624;-89
2020/12/26 08:58:00;;;;;;;11.53;8.73;;;2.10;92.10;;;;;;4968270;28;20231;-90
2020/12/26 09:00:27;;;;;;;13.57;9.23;;;2.00;92.50;;;;;;4966288;29;20216;-89
2020/12/26 09:02:54;;;;;;;14.03;9.17;;;1.90;93.50;;;;;;4950224;29;20275;-88
2020/12/26 09:05:31;;;;;;;11.90;9.23;;;2.00;93.00;;;;;;4967446;29;20180;-89
2020/12/26 09:08:07;;;;;;;10.83;8.37;;;2.00;92.40;;;;;;4967043;28;20203;-89
2020/12/26 09:10:35;;;;;;;12.83;8.80;;;2.00;92.20;;;;;;4949573;29;20187;-88
2020/12/26 09:13:11;;;;;;;13.93;9.10;;;1.90;92.50;;;;;;4967633;29;20251;-89
2020/12/26 09:15:51;;;;;;;14.90;9.10;;;1.90;92.70;;;;;;4965044;28;20186;-88
2020/12/26 09:18:18;;;;;;;14.70;9.77;;;1.90;93.20;;;;;;4967798;28;20274;-88
2020/12/26 09:20:53;;;;;;;11.20;9.10;;;1.70;94.70;;;;;;4971523;28;20211;-89
2020/12/26 09:23:20;;;;;;;12.53;9.33;;;1.80;93.70;;;;;;4982692;28;20171;-89
2020/12/26 09:25:47;;;;;;;14.53;10.03;;;1.70;95.00;;;;;;4983431;28;20190;-88
2020/12/26 09:28:13;;;;;;;11.47;9.57;;;1.80;94.30;;;;;;4987100;28;20202;-88
2020/12/26 09:30:38;;;;;;;16.77;10.37;;;1.70;94.70;;;;;;4987892;28;20206;-89
2020/12/26 09:33:04;;;;;;;14.73;10.30;;;1.80;95.40;;;;;;4982830;28;20198;-89
2020/12/26 09:35:30;;;;;;;12.97;9.57;;;1.90;94.40;;;;;;4982840;28;20218;-89
2020/12/26 09:37:57;;;;;;;13.70;10.07;;;2.00;93.40;;;;;;5001308;28;20250;-89
2020/12/26 09:40:27;;;;;;;13.37;9.97;;;2.00;94.10;;;;;;4985418;28;20206;-89
2020/12/26 09:42:53;;;;;;;16.80;10.57;;;2.10;93.80;;;;;;5001307;28;20270;-89
2020/12/26 09:45:19;;;;;;;14.97;10.40;;;2.10;94.00;;;;;;4986788;28;20181;-89
2020/12/26 09:47:45;;;;;;;17.17;10.33;;;1.90;94.60;;;;;;4975941;28;20203;-89
2020/12/26 09:50:11;;;;;;;16.07;10.00;;;2.00;94.60;;;;;;4967868;28;20244;-90
2020/12/26 09:52:42;;;;;;;13.47;9.70;;;2.20;93.30;;;;;;4965765;28;20191;-89
2020/12/26 09:55:11;;;;;;;11.20;9.13;;;2.30;92.30;;;;;;4980809;28;20171;-89
2020/12/26 09:57:37;;;;;;;14.27;9.40;;;2.30;92.90;;;;;;4971773;28;20207;-89
2020/12/26 10:00:05;;;;;;;12.93;8.83;;;2.40;92.60;;;;;;4991728;28;20262;-88
2020/12/26 10:02:31;;;;;;;11.97;9.53;;;2.40;92.50;;;;;;4986605;28;20206;-90
2020/12/26 10:04:57;;;;;;;15.13;9.53;;;2.50;92.40;;;;;;4985134;28;20270;-91
2020/12/26 10:07:22;;;;;;;12.20;9.30;;;2.60;91.40;;;;;;4998655;28;20179;-90
2020/12/26 10:09:48;;;;;;;18.17;10.13;;;2.70;91.00;;;;;;4980577;28;20257;-90
2020/12/26 10:12:14;;;;;;;14.20;10.00;;;2.90;90.60;;;;;;4985339;28;20234;-90
2020/12/26 10:14:39;;;;;;;15.47;9.67;;;2.90;90.80;;;;;;4987197;28;20183;-90
2020/12/26 10:17:05;;;;;;;16.40;9.97;;;2.90;90.10;;;;;;4985064;28;20259;-90
2020/12/26 10:19:31;;;;;;;12.77;10.17;;;3.00;89.80;;;;;;4988126;28;20321;-92
2020/12/26 10:21:56;;;;;;;11.20;9.40;;;3.10;91.00;;;;;;4987933;28;20193;-92
2020/12/26 10:24:22;;;;;;;11.27;10.07;;;3.20;88.80;;;;;;4971105;28;20198;-91
2020/12/26 10:26:48;;;;;;;12.87;9.43;;;3.10;89.00;;;;;;4969038;28;20202;-91
2020/12/26 10:29:13;;;;;;;11.77;9.77;;;3.10;87.60;;;;;;4968791;28;20212;-90
2020/12/26 10:31:39;;;;;;;14.60;9.30;;;3.00;88.10;;;;;;4982251;28;20188;-91
2020/12/26 10:34:05;;;;;;;12.43;8.93;;;3.10;88.70;;;;;;4985645;28;20294;-91
2020/12/26 10:36:31;;;;;;;13.27;9.43;;;3.00;87.70;;;;;;4987526;28;20270;-90
2020/12/26 10:38:57;;;;;;;11.77;9.33;;;2.80;87.60;;;;;;4987623;28;20211;-91
2020/12/26 10:41:22;;;;;;;11.33;8.53;;;2.80;88.20;;;;;;5004130;28;20282;-91
2020/12/26 10:43:48;;;;;;;13.20;9.73;;;2.70;88.20;;;;;;4987924;28;20183;-91
2020/12/26 10:46:14;;;;;;;11.93;8.77;;;2.70;87.50;;;;;;4967486;28;20195;-92
2020/12/26 10:48:40;;;;;;;12.57;8.37;;;2.70;88.50;;;;;;4985039;28;20203;-91
2020/12/26 10:51:06;;;;;;;11.40;8.57;;;2.80;87.50;;;;;;4985226;28;20186;-91
2020/12/26 10:53:32;;;;;;;12.97;9.50;;;2.70;86.80;;;;;;5001656;28;20214;-91
2020/12/26 10:55:57;;;;;;;12.97;8.80;;;2.70;87.40;;;;;;4986153;28;20189;-91
2020/12/26 10:58:23;;;;;;;13.50;10.63;;;2.70;88.00;;;;;;4987446;28;20235;-91
2020/12/26 11:00:49;;;;;;;12.23;8.93;;;2.70;88.50;;;;;;4985151;28;20226;-91
2020/12/26 11:03:15;;;;;;;12.70;9.70;;;2.80;87.70;;;;;;4985419;28;20187;-90
2020/12/26 11:05:40;;;;;;;14.93;11.30;;;2.90;87.70;;;;;;5000087;28;20190;-90
2020/12/26 11:08:06;;;;;;;12.50;9.37;;;3.00;86.60;;;;;;4986847;28;20207;-91
2020/12/26 11:10:32;;;;;;;13.97;10.37;;;3.00;87.40;;;;;;5001943;28;20618;-90
2020/12/26 11:12:57;;;;;;;13.03;10.60;;;3.10;85.00;;;;;;5001554;28;20279;-90
2020/12/26 11:15:23;;;;;;;12.73;10.43;;;3.10;85.20;;;;;;4986417;28;20213;-89
2020/12/26 11:17:49;;;;;;;11.20;9.30;;;3.10;85.70;;;;;;4973903;28;20274;-90
2020/12/26 11:20:15;;;;;;;11.37;10.17;;;3.00;85.90;;;;;;4981555;28;20213;-90
2020/12/26 11:22:40;;;;;;;13.03;10.90;;;3.00;84.70;;;;;;4965063;29;20179;-90
2020/12/26 11:25:06;;;;;;;14.27;10.07;;;2.90;85.20;;;;;;4964483;28;20195;-90
2020/12/26 11:27:32;;;;;;;14.73;10.30;;;2.90;86.20;;;;;;4964256;28;20187;-90
2020/12/26 11:29:58;;;;;;;14.77;10.83;;;2.90;86.30;;;;;;4979972;28;20211;-89
2020/12/26 11:32:23;;;;;;;14.57;10.57;;;2.80;86.40;;;;;;4983174;28;20246;-90
2020/12/26 11:34:49;;;;;;;13.27;10.73;;;2.90;86.80;;;;;;4965349;29;20184;-90
2020/12/26 11:37:15;;;;;;;12.43;9.97;;;3.00;85.10;;;;;;4983665;28;20562;-90
2020/12/26 11:39:41;;;;;;;12.47;9.53;;;3.00;85.10;;;;;;4983877;28;20214;-90
2020/12/26 11:42:07;;;;;;;23.60;15.97;;;3.00;86.20;;;;;;4986261;28;20269;-90
2020/12/26 11:44:33;;;;;;;13.33;10.40;;;3.10;86.30;;;;;;4986949;28;20208;-89
2020/12/26 11:47:00;;;;;;;11.30;8.97;;;3.10;85.30;;;;;;4985434;28;20187;-90
2020/12/26 11:49:26;;;;;;;13.27;10.40;;;3.00;84.30;;;;;;4983329;28;20215;-91
2020/12/26 11:51:53;;;;;;;13.67;10.30;;;2.90;84.80;;;;;;5010937;28;20223;-91
2020/12/26 11:54:21;;;;;;;16.43;10.97;;;3.00;84.50;;;;;;4972441;28;20195;-92
2020/12/26 11:56:48;;;;;;;15.77;9.57;;;3.00;84.80;;;;;;4939937;29;20203;-91
2020/12/26 11:59:14;;;;;;;16.90;9.77;;;3.20;83.90;;;;;;4955043;29;20241;-90
2020/12/26 12:01:39;;;;;;;15.60;11.03;;;3.10;83.10;;;;;;4990146;28;20191;-90
2020/12/26 12:04:05;;;;;;;14.20;10.13;;;3.10;84.20;;;;;;4988647;28;20190;-90
2020/12/26 12:06:31;;;;;;;12.77;9.43;;;3.30;82.80;;;;;;5004820;28;20234;-90
2020/12/26 12:08:58;;;;;;;13.33;10.20;;;3.40;83.40;;;;;;4984240;28;20218;-90
2020/12/26 12:11:23;;;;;;;16.07;10.63;;;3.60;82.30;;;;;;4963409;28;20203;-89
2020/12/26 12:13:49;;;;;;;13.57;9.33;;;3.50;83.10;;;;;;4983022;28;20184;-89
2020/12/26 12:16:15;;;;;;;11.03;8.87;;;3.60;83.10;;;;;;4987768;28;20191;-88
2020/12/26 12:18:41;;;;;;;12.17;9.83;;;3.60;82.00;;;;;;5003984;28;20213;-89
2020/12/26 12:21:06;;;;;;;12.87;9.13;;;3.80;81.10;;;;;;5002617;28;20211;-89
2020/12/26 12:23:32;;;;;;;15.20;10.10;;;3.80;80.90;;;;;;4988450;28;20202;-89
2020/12/26 12:25:58;;;;;;;15.40;9.10;;;3.80;82.40;;;;;;4984936;28;20254;-90
2020/12/26 12:28:24;;;;;;;14.00;9.83;;;3.90;82.50;;;;;;4986018;28;20203;-89
2020/12/26 12:30:49;;;;;;;14.63;10.23;;;3.80;82.10;;;;;;4988556;28;20214;-90
2020/12/26 12:33:15;;;;;;;12.37;9.17;;;3.80;81.30;;;;;;4989278;28;20183;-91
2020/12/26 12:35:41;;;;;;;13.40;9.73;;;3.80;81.10;;;;;;4988400;28;20669;-89
2020/12/26 12:38:06;;;;;;;13.33;9.00;;;3.80;80.30;;;;;;5004017;28;20210;-90
2020/12/26 12:40:32;;;;;;;10.27;8.27;;;4.00;79.30;;;;;;4988335;28;20221;-89
2020/12/26 12:42:58;;;;;;;11.00;9.30;;;4.20;78.80;;;;;;4984263;28;20259;-90
2020/12/26 12:45:24;;;;;;;12.97;8.17;;;4.30;79.00;;;;;;4993998;28;20191;-90
2020/12/26 12:47:49;;;;;;;11.70;8.57;;;4.30;78.40;;;;;;4987010;28;20214;-90